sensor_id;sensor_type;location;lat;lon;timestamp;P1;durP1;ratioP1;P2;durP2;ratioP2
51459;SDS011;37534;39.772;2.718;2023-02-03T00:00:22;40.03;;;30.05;;
51459;SDS011;37534;39.772;2.718;2023-02-03T00:02:48;36.42;;;26.05;;
51459;SDS011;37534;39.772;2.718;2023-02-03T00:05:14;29.83;;;22.08;;
51459;SDS011;37534;39.772;2.718;2023-02-03T00:07:40;28.20;;;22.02;;
51459;SDS011;37534;39.772;2.718;2023-02-03T00:10:06;46.08;;;24.92;;
51459;SDS011;37534;39.772;2.718;2023-02-03T00:12:32;22.70;;;19.17;;
51459;SDS011;37534;39.772;2.718;2023-02-03T00:14:58;38.28;;;30.85;;
51459;SDS011;37534;39.772;2.718;2023-02-03T00:17:24;32.08;;;23.95;;
51459;SDS011;37534;39.772;2.718;2023-02-03T00:19:49;40.78;;;28.00;;
51459;SDS011;37534;39.772;2.718;2023-02-03T00:22:15;39.10;;;26.25;;
51459;SDS011;37534;39.772;2.718;2023-02-03T00:24:40;35.22;;;26.10;;
51459;SDS011;37534;39.772;2.718;2023-02-03T00:27:06;32.40;;;28.27;;
51459;SDS011;37534;39.772;2.718;2023-02-03T00:29:32;33.17;;;27.65;;
51459;SDS011;37534;39.772;2.718;2023-02-03T00:31:57;48.47;;;38.20;;
51459;SDS011;37534;39.772;2.718;2023-02-03T00:34:26;36.25;;;27.90;;
51459;SDS011;37534;39.772;2.718;2023-02-03T00:36:54;52.75;;;32.38;;
51459;SDS011;37534;39.772;2.718;2023-02-03T00:39:19;40.33;;;31.17;;
51459;SDS011;37534;39.772;2.718;2023-02-03T00:41:45;38.90;;;28.48;;
51459;SDS011;37534;39.772;2.718;2023-02-03T00:44:11;35.40;;;26.17;;
51459;SDS011;37534;39.772;2.718;2023-02-03T00:46:37;38.22;;;28.08;;
51459;SDS011;37534;39.772;2.718;2023-02-03T00:49:03;36.42;;;30.25;;
51459;SDS011;37534;39.772;2.718;2023-02-03T00:51:29;26.40;;;23.52;;
51459;SDS011;37534;39.772;2.718;2023-02-03T00:53:55;31.77;;;26.60;;
51459;SDS011;37534;39.772;2.718;2023-02-03T00:56:21;37.47;;;26.60;;
51459;SDS011;37534;39.772;2.718;2023-02-03T00:58:46;44.22;;;30.60;;
51459;SDS011;37534;39.772;2.718;2023-02-03T01:01:12;27.95;;;20.75;;
51459;SDS011;37534;39.772;2.718;2023-02-03T01:03:37;24.95;;;21.75;;
51459;SDS011;37534;39.772;2.718;2023-02-03T01:06:22;30.67;;;23.02;;
51459;SDS011;37534;39.772;2.718;2023-02-03T01:08:48;42.88;;;28.80;;
51459;SDS011;37534;39.772;2.718;2023-02-03T01:11:15;42.85;;;28.75;;
51459;SDS011;37534;39.772;2.718;2023-02-03T01:13:43;33.67;;;23.90;;
51459;SDS011;37534;39.772;2.718;2023-02-03T01:16:10;31.85;;;20.48;;
51459;SDS011;37534;39.772;2.718;2023-02-03T01:18:37;26.20;;;22.15;;
51459;SDS011;37534;39.772;2.718;2023-02-03T01:21:08;30.80;;;21.98;;
51459;SDS011;37534;39.772;2.718;2023-02-03T01:23:35;27.30;;;21.33;;
51459;SDS011;37534;39.772;2.718;2023-02-03T01:26:04;23.17;;;19.67;;
51459;SDS011;37534;39.772;2.718;2023-02-03T01:28:31;22.13;;;19.98;;
51459;SDS011;37534;39.772;2.718;2023-02-03T01:31:07;20.90;;;15.50;;
51459;SDS011;37534;39.772;2.718;2023-02-03T01:33:43;18.60;;;11.95;;
51459;SDS011;37534;39.772;2.718;2023-02-03T01:36:16;37.10;;;21.98;;
51459;SDS011;37534;39.772;2.718;2023-02-03T01:38:42;27.65;;;20.77;;
51459;SDS011;37534;39.772;2.718;2023-02-03T01:41:10;16.95;;;12.90;;
51459;SDS011;37534;39.772;2.718;2023-02-03T01:43:41;15.18;;;12.30;;
51459;SDS011;37534;39.772;2.718;2023-02-03T01:49:07;15.90;;;12.73;;
51459;SDS011;37534;39.772;2.718;2023-02-03T01:51:36;18.52;;;13.98;;
51459;SDS011;37534;39.772;2.718;2023-02-03T01:54:06;60.22;;;42.50;;
51459;SDS011;37534;39.772;2.718;2023-02-03T01:56:39;115.35;;;75.18;;
51459;SDS011;37534;39.772;2.718;2023-02-03T01:59:08;30.38;;;22.70;;
51459;SDS011;37534;39.772;2.718;2023-02-03T02:01:34;30.48;;;20.40;;
51459;SDS011;37534;39.772;2.718;2023-02-03T02:04:01;31.77;;;22.50;;
51459;SDS011;37534;39.772;2.718;2023-02-03T02:06:28;28.80;;;20.15;;
51459;SDS011;37534;39.772;2.718;2023-02-03T02:08:54;42.30;;;20.63;;
51459;SDS011;37534;39.772;2.718;2023-02-03T02:11:24;33.00;;;24.02;;
51459;SDS011;37534;39.772;2.718;2023-02-03T02:13:51;30.42;;;22.52;;
51459;SDS011;37534;39.772;2.718;2023-02-03T02:16:21;26.10;;;18.13;;
51459;SDS011;37534;39.772;2.718;2023-02-03T02:36:25;16.05;;;12.07;;
51459;SDS011;37534;39.772;2.718;2023-02-03T02:39:11;16.48;;;11.60;;
51459;SDS011;37534;39.772;2.718;2023-02-03T02:44:40;29.52;;;17.25;;
51459;SDS011;37534;39.772;2.718;2023-02-03T02:47:17;20.98;;;14.90;;
51459;SDS011;37534;39.772;2.718;2023-02-03T02:52:23;28.13;;;11.13;;
51459;SDS011;37534;39.772;2.718;2023-02-03T02:54:56;19.67;;;11.00;;
51459;SDS011;37534;39.772;2.718;2023-02-03T02:57:27;17.77;;;12.63;;
51459;SDS011;37534;39.772;2.718;2023-02-03T02:59:55;18.58;;;11.88;;
51459;SDS011;37534;39.772;2.718;2023-02-03T03:02:21;22.65;;;12.75;;
51459;SDS011;37534;39.772;2.718;2023-02-03T03:04:46;19.08;;;13.30;;
51459;SDS011;37534;39.772;2.718;2023-02-03T03:07:20;18.85;;;13.15;;
51459;SDS011;37534;39.772;2.718;2023-02-03T03:09:50;21.65;;;13.68;;
51459;SDS011;37534;39.772;2.718;2023-02-03T03:12:28;12.45;;;10.48;;
51459;SDS011;37534;39.772;2.718;2023-02-03T03:15:18;15.68;;;9.93;;
51459;SDS011;37534;39.772;2.718;2023-02-03T03:17:51;14.38;;;10.32;;
51459;SDS011;37534;39.772;2.718;2023-02-03T03:20:23;19.45;;;9.35;;
51459;SDS011;37534;39.772;2.718;2023-02-03T03:22:53;21.25;;;10.73;;
51459;SDS011;37534;39.772;2.718;2023-02-03T03:25:31;11.10;;;9.75;;
51459;SDS011;37534;39.772;2.718;2023-02-03T03:28:09;17.98;;;11.18;;
51459;SDS011;37534;39.772;2.718;2023-02-03T03:30:40;15.98;;;7.93;;
51459;SDS011;37534;39.772;2.718;2023-02-03T03:33:06;12.18;;;6.07;;
51459;SDS011;37534;39.772;2.718;2023-02-03T03:35:38;19.98;;;8.77;;
51459;SDS011;37534;39.772;2.718;2023-02-03T03:38:19;47.30;;;23.85;;
51459;SDS011;37534;39.772;2.718;2023-02-03T03:43:24;9.93;;;6.45;;
51459;SDS011;37534;39.772;2.718;2023-02-03T03:45:56;9.90;;;6.50;;
51459;SDS011;37534;39.772;2.718;2023-02-03T03:51:22;8.40;;;6.47;;
51459;SDS011;37534;39.772;2.718;2023-02-03T03:53:55;7.25;;;5.35;;
51459;SDS011;37534;39.772;2.718;2023-02-03T03:56:27;10.45;;;4.43;;
51459;SDS011;37534;39.772;2.718;2023-02-03T03:58:59;16.40;;;5.38;;
51459;SDS011;37534;39.772;2.718;2023-02-03T04:01:28;20.75;;;5.60;;
51459;SDS011;37534;39.772;2.718;2023-02-03T04:03:55;18.15;;;7.55;;
51459;SDS011;37534;39.772;2.718;2023-02-03T04:06:26;14.25;;;6.68;;
51459;SDS011;37534;39.772;2.718;2023-02-03T04:08:51;18.42;;;10.98;;
51459;SDS011;37534;39.772;2.718;2023-02-03T04:11:17;11.00;;;6.55;;
51459;SDS011;37534;39.772;2.718;2023-02-03T04:14:01;11.18;;;7.07;;
51459;SDS011;37534;39.772;2.718;2023-02-03T04:16:27;36.45;;;20.38;;
51459;SDS011;37534;39.772;2.718;2023-02-03T04:18:52;13.82;;;7.13;;
51459;SDS011;37534;39.772;2.718;2023-02-03T04:21:18;21.92;;;9.13;;
51459;SDS011;37534;39.772;2.718;2023-02-03T04:23:43;11.82;;;6.13;;
51459;SDS011;37534;39.772;2.718;2023-02-03T04:26:09;7.20;;;3.88;;
51459;SDS011;37534;39.772;2.718;2023-02-03T04:28:34;10.27;;;4.32;;
51459;SDS011;37534;39.772;2.718;2023-02-03T04:31:00;8.70;;;4.53;;
51459;SDS011;37534;39.772;2.718;2023-02-03T04:33:26;6.43;;;3.95;;
51459;SDS011;37534;39.772;2.718;2023-02-03T04:35:51;15.35;;;4.55;;
51459;SDS011;37534;39.772;2.718;2023-02-03T04:38:17;8.27;;;3.45;;
51459;SDS011;37534;39.772;2.718;2023-02-03T04:40:42;18.40;;;5.03;;
51459;SDS011;37534;39.772;2.718;2023-02-03T04:43:10;14.15;;;4.43;;
51459;SDS011;37534;39.772;2.718;2023-02-03T04:45:36;7.60;;;3.75;;
51459;SDS011;37534;39.772;2.718;2023-02-03T04:48:02;7.43;;;3.97;;
51459;SDS011;37534;39.772;2.718;2023-02-03T04:50:31;15.55;;;3.33;;
51459;SDS011;37534;39.772;2.718;2023-02-03T04:52:57;8.45;;;3.72;;
51459;SDS011;37534;39.772;2.718;2023-02-03T04:55:24;12.60;;;4.38;;
51459;SDS011;37534;39.772;2.718;2023-02-03T04:57:57;9.88;;;3.50;;
51459;SDS011;37534;39.772;2.718;2023-02-03T05:00:24;9.05;;;3.22;;
51459;SDS011;37534;39.772;2.718;2023-02-03T05:02:51;16.67;;;3.97;;
51459;SDS011;37534;39.772;2.718;2023-02-03T05:05:17;9.07;;;4.22;;
51459;SDS011;37534;39.772;2.718;2023-02-03T05:07:42;7.68;;;3.97;;
51459;SDS011;37534;39.772;2.718;2023-02-03T05:10:08;8.32;;;5.47;;
51459;SDS011;37534;39.772;2.718;2023-02-03T05:12:34;9.65;;;5.80;;
51459;SDS011;37534;39.772;2.718;2023-02-03T05:15:00;7.10;;;3.92;;
51459;SDS011;37534;39.772;2.718;2023-02-03T05:17:26;7.82;;;3.00;;
51459;SDS011;37534;39.772;2.718;2023-02-03T05:19:51;7.05;;;3.40;;
51459;SDS011;37534;39.772;2.718;2023-02-03T05:22:17;11.73;;;4.57;;
51459;SDS011;37534;39.772;2.718;2023-02-03T05:24:43;10.52;;;3.10;;
51459;SDS011;37534;39.772;2.718;2023-02-03T05:27:08;7.05;;;2.90;;
51459;SDS011;37534;39.772;2.718;2023-02-03T05:29:34;8.88;;;4.28;;
51459;SDS011;37534;39.772;2.718;2023-02-03T05:32:00;9.77;;;6.30;;
51459;SDS011;37534;39.772;2.718;2023-02-03T05:34:26;6.55;;;4.68;;
51459;SDS011;37534;39.772;2.718;2023-02-03T05:36:51;34.55;;;10.50;;
51459;SDS011;37534;39.772;2.718;2023-02-03T05:39:17;14.25;;;6.70;;
51459;SDS011;37534;39.772;2.718;2023-02-03T05:41:43;7.28;;;4.63;;
51459;SDS011;37534;39.772;2.718;2023-02-03T05:44:24;17.08;;;4.40;;
51459;SDS011;37534;39.772;2.718;2023-02-03T05:46:51;12.05;;;6.70;;
51459;SDS011;37534;39.772;2.718;2023-02-03T05:49:19;16.13;;;6.25;;
51459;SDS011;37534;39.772;2.718;2023-02-03T05:51:45;9.48;;;4.53;;
51459;SDS011;37534;39.772;2.718;2023-02-03T05:54:11;7.47;;;3.67;;
51459;SDS011;37534;39.772;2.718;2023-02-03T05:56:37;18.52;;;5.13;;
51459;SDS011;37534;39.772;2.718;2023-02-03T05:59:03;11.30;;;5.55;;
51459;SDS011;37534;39.772;2.718;2023-02-03T06:01:29;15.95;;;5.75;;
51459;SDS011;37534;39.772;2.718;2023-02-03T06:03:55;15.98;;;6.05;;
51459;SDS011;37534;39.772;2.718;2023-02-03T06:06:21;13.90;;;4.28;;
51459;SDS011;37534;39.772;2.718;2023-02-03T06:08:46;16.95;;;5.28;;
51459;SDS011;37534;39.772;2.718;2023-02-03T06:11:12;18.95;;;5.47;;
51459;SDS011;37534;39.772;2.718;2023-02-03T06:13:38;7.57;;;4.28;;
51459;SDS011;37534;39.772;2.718;2023-02-03T06:16:03;8.35;;;3.95;;
51459;SDS011;37534;39.772;2.718;2023-02-03T06:18:29;15.70;;;4.95;;
51459;SDS011;37534;39.772;2.718;2023-02-03T06:20:55;9.57;;;4.38;;
51459;SDS011;37534;39.772;2.718;2023-02-03T06:23:21;8.40;;;5.85;;
51459;SDS011;37534;39.772;2.718;2023-02-03T06:25:47;9.85;;;4.20;;
51459;SDS011;37534;39.772;2.718;2023-02-03T06:28:14;18.50;;;11.40;;
51459;SDS011;37534;39.772;2.718;2023-02-03T06:30:40;15.95;;;6.30;;
51459;SDS011;37534;39.772;2.718;2023-02-03T06:33:06;17.00;;;7.85;;
51459;SDS011;37534;39.772;2.718;2023-02-03T06:35:32;13.93;;;7.10;;
51459;SDS011;37534;39.772;2.718;2023-02-03T06:37:58;8.68;;;5.05;;
51459;SDS011;37534;39.772;2.718;2023-02-03T06:40:23;13.05;;;5.53;;
51459;SDS011;37534;39.772;2.718;2023-02-03T06:42:49;14.02;;;5.00;;
51459;SDS011;37534;39.772;2.718;2023-02-03T06:45:15;8.20;;;4.53;;
51459;SDS011;37534;39.772;2.718;2023-02-03T06:47:42;12.15;;;5.28;;
51459;SDS011;37534;39.772;2.718;2023-02-03T06:50:09;9.45;;;5.05;;
51459;SDS011;37534;39.772;2.718;2023-02-03T06:52:36;15.73;;;8.80;;
51459;SDS011;37534;39.772;2.718;2023-02-03T06:55:03;18.83;;;9.77;;
51459;SDS011;37534;39.772;2.718;2023-02-03T06:57:29;18.73;;;11.63;;
51459;SDS011;37534;39.772;2.718;2023-02-03T06:59:55;16.27;;;10.18;;
51459;SDS011;37534;39.772;2.718;2023-02-03T07:02:20;23.83;;;10.60;;
51459;SDS011;37534;39.772;2.718;2023-02-03T07:04:46;24.52;;;14.18;;
51459;SDS011;37534;39.772;2.718;2023-02-03T07:07:11;11.52;;;7.35;;
51459;SDS011;37534;39.772;2.718;2023-02-03T07:09:38;18.17;;;13.80;;
51459;SDS011;37534;39.772;2.718;2023-02-03T07:12:05;14.18;;;8.40;;
51459;SDS011;37534;39.772;2.718;2023-02-03T07:14:31;15.90;;;13.25;;
51459;SDS011;37534;39.772;2.718;2023-02-03T07:16:59;17.08;;;8.73;;
51459;SDS011;37534;39.772;2.718;2023-02-03T07:19:25;16.60;;;10.23;;
51459;SDS011;37534;39.772;2.718;2023-02-03T07:21:50;14.48;;;8.35;;
51459;SDS011;37534;39.772;2.718;2023-02-03T07:24:16;18.33;;;7.60;;
51459;SDS011;37534;39.772;2.718;2023-02-03T07:26:41;23.00;;;11.57;;
51459;SDS011;37534;39.772;2.718;2023-02-03T07:29:07;17.80;;;9.80;;
51459;SDS011;37534;39.772;2.718;2023-02-03T07:31:32;17.42;;;6.80;;
51459;SDS011;37534;39.772;2.718;2023-02-03T07:33:59;15.23;;;9.50;;
51459;SDS011;37534;39.772;2.718;2023-02-03T07:36:25;12.45;;;8.57;;
51459;SDS011;37534;39.772;2.718;2023-02-03T07:38:53;14.70;;;9.00;;
51459;SDS011;37534;39.772;2.718;2023-02-03T07:41:19;16.10;;;8.48;;
51459;SDS011;37534;39.772;2.718;2023-02-03T07:43:45;15.10;;;11.55;;
51459;SDS011;37534;39.772;2.718;2023-02-03T07:46:11;17.70;;;9.55;;
51459;SDS011;37534;39.772;2.718;2023-02-03T07:48:37;18.52;;;12.32;;
51459;SDS011;37534;39.772;2.718;2023-02-03T07:51:02;52.63;;;46.45;;
51459;SDS011;37534;39.772;2.718;2023-02-03T07:53:28;71.82;;;58.20;;
51459;SDS011;37534;39.772;2.718;2023-02-03T07:55:54;59.50;;;49.38;;
51459;SDS011;37534;39.772;2.718;2023-02-03T07:58:24;25.67;;;16.65;;
51459;SDS011;37534;39.772;2.718;2023-02-03T08:00:49;22.50;;;15.38;;
51459;SDS011;37534;39.772;2.718;2023-02-03T08:03:15;17.23;;;9.35;;
51459;SDS011;37534;39.772;2.718;2023-02-03T08:05:40;39.33;;;25.60;;
51459;SDS011;37534;39.772;2.718;2023-02-03T08:08:06;35.95;;;28.75;;
51459;SDS011;37534;39.772;2.718;2023-02-03T08:10:31;25.13;;;17.73;;
51459;SDS011;37534;39.772;2.718;2023-02-03T08:12:57;20.85;;;14.15;;
51459;SDS011;37534;39.772;2.718;2023-02-03T08:15:22;17.23;;;11.30;;
51459;SDS011;37534;39.772;2.718;2023-02-03T08:17:48;27.35;;;14.93;;
51459;SDS011;37534;39.772;2.718;2023-02-03T08:20:14;35.10;;;16.20;;
51459;SDS011;37534;39.772;2.718;2023-02-03T08:22:40;20.63;;;12.27;;
51459;SDS011;37534;39.772;2.718;2023-02-03T08:25:06;13.95;;;8.82;;
51459;SDS011;37534;39.772;2.718;2023-02-03T08:27:32;10.35;;;7.38;;
51459;SDS011;37534;39.772;2.718;2023-02-03T08:29:58;16.27;;;10.07;;
51459;SDS011;37534;39.772;2.718;2023-02-03T08:32:24;19.17;;;11.32;;
51459;SDS011;37534;39.772;2.718;2023-02-03T08:34:50;18.30;;;10.10;;
51459;SDS011;37534;39.772;2.718;2023-02-03T08:37:17;20.58;;;9.23;;
51459;SDS011;37534;39.772;2.718;2023-02-03T08:39:44;12.95;;;9.00;;
51459;SDS011;37534;39.772;2.718;2023-02-03T08:42:10;17.10;;;10.90;;
51459;SDS011;37534;39.772;2.718;2023-02-03T08:44:36;21.63;;;10.18;;
51459;SDS011;37534;39.772;2.718;2023-02-03T08:47:03;18.10;;;10.32;;
51459;SDS011;37534;39.772;2.718;2023-02-03T08:49:29;14.68;;;9.80;;
51459;SDS011;37534;39.772;2.718;2023-02-03T08:51:56;22.35;;;11.75;;
51459;SDS011;37534;39.772;2.718;2023-02-03T08:54:23;14.38;;;10.20;;
51459;SDS011;37534;39.772;2.718;2023-02-03T08:56:49;21.55;;;13.23;;
51459;SDS011;37534;39.772;2.718;2023-02-03T08:59:15;17.05;;;10.05;;
51459;SDS011;37534;39.772;2.718;2023-02-03T09:01:41;21.30;;;10.68;;
51459;SDS011;37534;39.772;2.718;2023-02-03T09:04:12;21.08;;;10.05;;
51459;SDS011;37534;39.772;2.718;2023-02-03T09:06:39;31.50;;;18.27;;
51459;SDS011;37534;39.772;2.718;2023-02-03T09:09:05;13.50;;;10.80;;
51459;SDS011;37534;39.772;2.718;2023-02-03T09:11:30;18.88;;;8.43;;
51459;SDS011;37534;39.772;2.718;2023-02-03T09:13:56;13.50;;;7.65;;
51459;SDS011;37534;39.772;2.718;2023-02-03T09:16:22;13.85;;;9.35;;
51459;SDS011;37534;39.772;2.718;2023-02-03T09:18:50;11.88;;;8.57;;
51459;SDS011;37534;39.772;2.718;2023-02-03T09:21:16;14.07;;;9.98;;
51459;SDS011;37534;39.772;2.718;2023-02-03T09:23:42;15.75;;;8.80;;
51459;SDS011;37534;39.772;2.718;2023-02-03T09:26:10;10.80;;;7.57;;
51459;SDS011;37534;39.772;2.718;2023-02-03T09:28:36;17.83;;;8.27;;
51459;SDS011;37534;39.772;2.718;2023-02-03T09:31:04;18.95;;;13.00;;
51459;SDS011;37534;39.772;2.718;2023-02-03T09:33:31;20.08;;;12.90;;
51459;SDS011;37534;39.772;2.718;2023-02-03T09:35:57;17.98;;;12.77;;
51459;SDS011;37534;39.772;2.718;2023-02-03T09:38:23;16.30;;;8.45;;
51459;SDS011;37534;39.772;2.718;2023-02-03T09:40:51;19.15;;;7.57;;
51459;SDS011;37534;39.772;2.718;2023-02-03T09:47:31;16.67;;;8.50;;
51459;SDS011;37534;39.772;2.718;2023-02-03T09:49:54;11.73;;;6.75;;
51459;SDS011;37534;39.772;2.718;2023-02-03T09:52:24;13.07;;;8.55;;
51459;SDS011;37534;39.772;2.718;2023-02-03T09:57:43;9.60;;;6.53;;
51459;SDS011;37534;39.772;2.718;2023-02-03T10:00:19;9.32;;;4.50;;
51459;SDS011;37534;39.772;2.718;2023-02-03T10:02:56;3.65;;;3.17;;
51459;SDS011;37534;39.772;2.718;2023-02-03T10:08:35;7.30;;;5.50;;
51459;SDS011;37534;39.772;2.718;2023-02-03T10:19:21;9.80;;;3.40;;
51459;SDS011;37534;39.772;2.718;2023-02-03T10:21:51;14.52;;;3.35;;
51459;SDS011;37534;39.772;2.718;2023-02-03T10:24:37;12.13;;;2.95;;
51459;SDS011;37534;39.772;2.718;2023-02-03T10:27:15;7.90;;;5.22;;
51459;SDS011;37534;39.772;2.718;2023-02-03T10:29:43;4.53;;;2.38;;
51459;SDS011;37534;39.772;2.718;2023-02-03T10:32:10;9.30;;;3.50;;
51459;SDS011;37534;39.772;2.718;2023-02-03T10:34:36;12.00;;;5.03;;
51459;SDS011;37534;39.772;2.718;2023-02-03T10:37:16;10.45;;;3.67;;
51459;SDS011;37534;39.772;2.718;2023-02-03T10:39:52;10.50;;;2.88;;
51459;SDS011;37534;39.772;2.718;2023-02-03T10:42:20;5.72;;;2.85;;
51459;SDS011;37534;39.772;2.718;2023-02-03T10:44:58;11.32;;;3.38;;
51459;SDS011;37534;39.772;2.718;2023-02-03T10:47:32;7.53;;;3.30;;
51459;SDS011;37534;39.772;2.718;2023-02-03T10:50:06;7.88;;;3.08;;
51459;SDS011;37534;39.772;2.718;2023-02-03T10:52:39;6.72;;;2.80;;
51459;SDS011;37534;39.772;2.718;2023-02-03T10:55:05;7.03;;;3.42;;
51459;SDS011;37534;39.772;2.718;2023-02-03T10:57:58;6.70;;;4.43;;
51459;SDS011;37534;39.772;2.718;2023-02-03T11:00:35;4.88;;;3.28;;
51459;SDS011;37534;39.772;2.718;2023-02-03T11:03:05;6.68;;;3.63;;
51459;SDS011;37534;39.772;2.718;2023-02-03T11:05:40;6.72;;;2.67;;
51459;SDS011;37534;39.772;2.718;2023-02-03T11:08:15;3.95;;;2.38;;
51459;SDS011;37534;39.772;2.718;2023-02-03T11:10:41;5.93;;;2.88;;
51459;SDS011;37534;39.772;2.718;2023-02-03T11:13:18;3.83;;;2.45;;
51459;SDS011;37534;39.772;2.718;2023-02-03T11:21:29;3.55;;;3.13;;
51459;SDS011;37534;39.772;2.718;2023-02-03T11:24:17;11.40;;;3.75;;
51459;SDS011;37534;39.772;2.718;2023-02-03T11:26:48;6.57;;;2.45;;
51459;SDS011;37534;39.772;2.718;2023-02-03T11:29:21;9.98;;;3.15;;
51459;SDS011;37534;39.772;2.718;2023-02-03T11:31:48;6.78;;;2.85;;
51459;SDS011;37534;39.772;2.718;2023-02-03T11:34:17;6.38;;;3.13;;
51459;SDS011;37534;39.772;2.718;2023-02-03T11:36:48;10.48;;;4.53;;
51459;SDS011;37534;39.772;2.718;2023-02-03T11:39:23;9.43;;;3.22;;
51459;SDS011;37534;39.772;2.718;2023-02-03T11:41:49;4.57;;;2.20;;
51459;SDS011;37534;39.772;2.718;2023-02-03T11:44:22;11.40;;;2.97;;
51459;SDS011;37534;39.772;2.718;2023-02-03T11:47:11;9.25;;;2.67;;
51459;SDS011;37534;39.772;2.718;2023-02-03T11:52:40;4.70;;;2.10;;
51459;SDS011;37534;39.772;2.718;2023-02-03T12:03:14;6.95;;;2.45;;
51459;SDS011;37534;39.772;2.718;2023-02-03T12:06:00;10.50;;;2.95;;
51459;SDS011;37534;39.772;2.718;2023-02-03T12:14:29;8.23;;;2.63;;
51459;SDS011;37534;39.772;2.718;2023-02-03T12:19:49;7.60;;;2.67;;
51459;SDS011;37534;39.772;2.718;2023-02-03T12:23:15;5.63;;;2.03;;
51459;SDS011;37534;39.772;2.718;2023-02-03T12:30:42;7.72;;;2.75;;
51459;SDS011;37534;39.772;2.718;2023-02-03T12:33:18;2.42;;;2.00;;
51459;SDS011;37534;39.772;2.718;2023-02-03T12:35:51;4.57;;;2.00;;
51459;SDS011;37534;39.772;2.718;2023-02-03T12:41:00;2.95;;;1.85;;
51459;SDS011;37534;39.772;2.718;2023-02-03T12:43:37;6.80;;;2.53;;
51459;SDS011;37534;39.772;2.718;2023-02-03T12:46:26;3.05;;;2.05;;
51459;SDS011;37534;39.772;2.718;2023-02-03T12:51:37;6.50;;;2.70;;
51459;SDS011;37534;39.772;2.718;2023-02-03T12:54:14;8.20;;;3.83;;
51459;SDS011;37534;39.772;2.718;2023-02-03T12:56:59;12.23;;;2.85;;
51459;SDS011;37534;39.772;2.718;2023-02-03T12:59:36;8.27;;;2.30;;
51459;SDS011;37534;39.772;2.718;2023-02-03T13:02:25;7.15;;;3.65;;
51459;SDS011;37534;39.772;2.718;2023-02-03T13:04:56;3.88;;;2.63;;
51459;SDS011;37534;39.772;2.718;2023-02-03T13:07:35;5.40;;;2.33;;
51459;SDS011;37534;39.772;2.718;2023-02-03T13:10:18;7.72;;;2.33;;
51459;SDS011;37534;39.772;2.718;2023-02-03T13:12:50;3.08;;;1.77;;
51459;SDS011;37534;39.772;2.718;2023-02-03T13:15:25;5.82;;;2.17;;
51459;SDS011;37534;39.772;2.718;2023-02-03T13:20:27;4.50;;;3.22;;
51459;SDS011;37534;39.772;2.718;2023-02-03T13:22:55;6.15;;;2.63;;
51459;SDS011;37534;39.772;2.718;2023-02-03T13:25:23;3.80;;;2.40;;
51459;SDS011;37534;39.772;2.718;2023-02-03T13:27:58;8.68;;;2.70;;
51459;SDS011;37534;39.772;2.718;2023-02-03T13:43:45;7.30;;;2.83;;
51459;SDS011;37534;39.772;2.718;2023-02-03T13:46:23;3.70;;;2.30;;
51459;SDS011;37534;39.772;2.718;2023-02-03T13:48:52;2.72;;;2.00;;
51459;SDS011;37534;39.772;2.718;2023-02-03T13:51:23;6.03;;;1.60;;
51459;SDS011;37534;39.772;2.718;2023-02-03T13:53:57;4.03;;;2.40;;
51459;SDS011;37534;39.772;2.718;2023-02-03T13:56:26;4.65;;;2.50;;
51459;SDS011;37534;39.772;2.718;2023-02-03T14:01:40;4.45;;;2.13;;
51459;SDS011;37534;39.772;2.718;2023-02-03T14:04:07;9.63;;;3.03;;
51459;SDS011;37534;39.772;2.718;2023-02-03T14:06:54;9.30;;;2.72;;
51459;SDS011;37534;39.772;2.718;2023-02-03T14:14:55;10.88;;;3.15;;
51459;SDS011;37534;39.772;2.718;2023-02-03T14:19:59;7.55;;;2.88;;
51459;SDS011;37534;39.772;2.718;2023-02-03T14:22:48;5.47;;;3.47;;
51459;SDS011;37534;39.772;2.718;2023-02-03T14:25:14;10.93;;;4.47;;
51459;SDS011;37534;39.772;2.718;2023-02-03T14:27:43;8.00;;;4.03;;
51459;SDS011;37534;39.772;2.718;2023-02-03T14:30:10;7.85;;;3.80;;
51459;SDS011;37534;39.772;2.718;2023-02-03T14:35:22;7.25;;;3.38;;
51459;SDS011;37534;39.772;2.718;2023-02-03T14:37:54;10.05;;;3.38;;
51459;SDS011;37534;39.772;2.718;2023-02-03T14:46:01;7.57;;;3.65;;
51459;SDS011;37534;39.772;2.718;2023-02-03T14:57:36;23.40;;;5.68;;
51459;SDS011;37534;39.772;2.718;2023-02-03T15:02:35;6.78;;;3.78;;
51459;SDS011;37534;39.772;2.718;2023-02-03T15:10:57;11.73;;;4.13;;
51459;SDS011;37534;39.772;2.718;2023-02-03T15:15:57;10.52;;;6.03;;
51459;SDS011;37534;39.772;2.718;2023-02-03T15:18:35;11.38;;;4.93;;
51459;SDS011;37534;39.772;2.718;2023-02-03T15:21:02;7.28;;;3.33;;
51459;SDS011;37534;39.772;2.718;2023-02-03T15:23:29;8.00;;;3.55;;
51459;SDS011;37534;39.772;2.718;2023-02-03T15:26:08;13.10;;;5.03;;
51459;SDS011;37534;39.772;2.718;2023-02-03T15:28:37;8.90;;;3.15;;
51459;SDS011;37534;39.772;2.718;2023-02-03T15:31:37;14.70;;;3.97;;
51459;SDS011;37534;39.772;2.718;2023-02-03T15:34:27;10.52;;;5.45;;
51459;SDS011;37534;39.772;2.718;2023-02-03T15:36:59;12.25;;;4.05;;
51459;SDS011;37534;39.772;2.718;2023-02-03T15:42:19;11.93;;;7.68;;
51459;SDS011;37534;39.772;2.718;2023-02-03T15:44:56;20.20;;;7.10;;
51459;SDS011;37534;39.772;2.718;2023-02-03T15:47:32;9.90;;;6.65;;
51459;SDS011;37534;39.772;2.718;2023-02-03T15:50:07;15.90;;;8.98;;
51459;SDS011;37534;39.772;2.718;2023-02-03T15:52:48;20.17;;;11.15;;
51459;SDS011;37534;39.772;2.718;2023-02-03T15:58:00;14.45;;;7.65;;
51459;SDS011;37534;39.772;2.718;2023-02-03T16:00:27;13.55;;;6.65;;
51459;SDS011;37534;39.772;2.718;2023-02-03T16:03:03;22.25;;;9.50;;
51459;SDS011;37534;39.772;2.718;2023-02-03T16:05:38;19.40;;;12.35;;
51459;SDS011;37534;39.772;2.718;2023-02-03T16:11:45;16.20;;;7.63;;
51459;SDS011;37534;39.772;2.718;2023-02-03T16:13:54;15.20;;;10.95;;
51459;SDS011;37534;39.772;2.718;2023-02-03T16:16:24;37.67;;;24.60;;
51459;SDS011;37534;39.772;2.718;2023-02-03T16:18:57;21.40;;;12.13;;
51459;SDS011;37534;39.772;2.718;2023-02-03T16:26:24;28.42;;;20.17;;
51459;SDS011;37534;39.772;2.718;2023-02-03T16:28:55;27.00;;;14.75;;
51459;SDS011;37534;39.772;2.718;2023-02-03T16:32:00;24.52;;;12.90;;
51459;SDS011;37534;39.772;2.718;2023-02-03T16:34:44;41.63;;;30.35;;
51459;SDS011;37534;39.772;2.718;2023-02-03T16:37:33;34.58;;;19.38;;
51459;SDS011;37534;39.772;2.718;2023-02-03T16:40:25;21.02;;;12.70;;
51459;SDS011;37534;39.772;2.718;2023-02-03T16:43:10;27.02;;;12.20;;
51459;SDS011;37534;39.772;2.718;2023-02-03T16:45:57;36.63;;;17.15;;
51459;SDS011;37534;39.772;2.718;2023-02-03T16:48:42;44.50;;;21.02;;
51459;SDS011;37534;39.772;2.718;2023-02-03T16:51:28;26.42;;;18.55;;
51459;SDS011;37534;39.772;2.718;2023-02-03T16:54:09;34.53;;;22.02;;
51459;SDS011;37534;39.772;2.718;2023-02-03T16:56:37;50.88;;;40.85;;
51459;SDS011;37534;39.772;2.718;2023-02-03T16:59:03;33.70;;;25.88;;
51459;SDS011;37534;39.772;2.718;2023-02-03T17:01:28;43.47;;;24.70;;
51459;SDS011;37534;39.772;2.718;2023-02-03T17:03:55;38.35;;;26.92;;
51459;SDS011;37534;39.772;2.718;2023-02-03T17:06:21;41.50;;;22.25;;
51459;SDS011;37534;39.772;2.718;2023-02-03T17:08:47;41.13;;;28.48;;
51459;SDS011;37534;39.772;2.718;2023-02-03T17:11:17;49.45;;;29.58;;
51459;SDS011;37534;39.772;2.718;2023-02-03T17:13:44;29.42;;;23.02;;
51459;SDS011;37534;39.772;2.718;2023-02-03T17:16:17;47.30;;;27.73;;
51459;SDS011;37534;39.772;2.718;2023-02-03T17:18:46;32.00;;;18.95;;
51459;SDS011;37534;39.772;2.718;2023-02-03T17:21:14;25.35;;;18.60;;
51459;SDS011;37534;39.772;2.718;2023-02-03T17:23:41;27.92;;;21.08;;